createdAt,value
2023-09-09T00:02:17.645Z,4.35
2023-09-09T00:04:44.855Z,5.40
2023-09-09T00:07:12.106Z,5.00
2023-09-09T00:09:40.734Z,4.07
2023-09-09T00:12:08.062Z,4.60
2023-09-09T00:14:35.198Z,3.70
2023-09-09T00:17:02.447Z,4.65
2023-09-09T00:19:29.855Z,4.63
2023-09-09T00:21:57.028Z,4.15
2023-09-09T00:24:24.181Z,5.68
2023-09-09T00:26:52.741Z,5.50
2023-09-09T00:29:19.869Z,5.95
2023-09-09T00:31:47.127Z,4.38
2023-09-09T00:34:14.450Z,4.25
2023-09-09T00:36:41.602Z,3.85
2023-09-09T00:39:08.724Z,5.22
2023-09-09T00:41:35.876Z,5.50
2023-09-09T00:44:04.706Z,4.85
2023-09-09T00:46:32.236Z,5.10
2023-09-09T00:48:59.668Z,5.20
2023-09-09T00:51:26.824Z,3.83
2023-09-09T00:53:53.966Z,6.72
2023-09-09T00:56:21.212Z,3.30
2023-09-09T00:58:48.393Z,4.03
2023-09-09T01:01:16.977Z,4.05
2023-09-09T01:03:45.538Z,3.83
2023-09-09T01:06:12.810Z,5.65
2023-09-09T01:08:39.970Z,4.65
2023-09-09T01:11:07.182Z,3.95
2023-09-09T01:13:36.363Z,4.32
2023-09-09T01:16:04.197Z,5.07
2023-09-09T01:18:33.092Z,3.17
2023-09-09T01:21:05.454Z,4.00
2023-09-09T01:23:34.772Z,3.75
2023-09-09T01:26:02.099Z,4.72
2023-09-09T01:28:29.299Z,4.00
2023-09-09T01:30:56.532Z,4.53
2023-09-09T01:33:23.759Z,4.22
2023-09-09T01:35:50.903Z,4.18
2023-09-09T01:38:18.083Z,3.70
2023-09-09T01:40:46.591Z,4.70
2023-09-09T01:43:13.718Z,4.10
2023-09-09T01:45:41.045Z,3.97
2023-09-09T01:48:08.596Z,4.97
2023-09-09T01:50:35.846Z,3.85
2023-09-09T01:53:03.874Z,4.53
2023-09-09T01:55:31.094Z,4.40
2023-09-09T01:57:59.734Z,4.90
2023-09-09T02:00:26.898Z,4.80
2023-09-09T02:02:54.112Z,5.68
2023-09-09T02:05:21.365Z,5.40
2023-09-09T02:07:49.090Z,5.60
2023-09-09T02:10:16.347Z,5.00
2023-09-09T02:12:43.670Z,5.15
2023-09-09T02:15:12.621Z,5.20
2023-09-09T02:17:39.840Z,5.03
2023-09-09T02:20:08.288Z,4.35
2023-09-09T02:22:35.484Z,4.40
2023-09-09T02:25:03.068Z,4.35
2023-09-09T02:27:30.452Z,5.25
2023-09-09T02:29:57.591Z,5.72
2023-09-09T02:32:26.181Z,6.13
2023-09-09T02:34:53.473Z,5.53
2023-09-09T02:37:22.062Z,4.93
2023-09-09T02:39:51.616Z,4.57
2023-09-09T02:42:20.593Z,5.03
2023-09-09T02:44:48.610Z,5.07
2023-09-09T02:47:15.851Z,4.90
2023-09-09T02:49:44.383Z,4.80
2023-09-09T02:52:12.556Z,4.88
2023-09-09T02:54:40.576Z,4.78
2023-09-09T02:57:07.745Z,5.88
2023-09-09T02:59:37.025Z,5.20
2023-09-09T03:02:04.645Z,4.65
2023-09-09T03:04:31.838Z,5.35
2023-09-09T03:07:00.639Z,4.38
2023-09-09T03:09:27.889Z,5.65
2023-09-09T03:11:55.075Z,4.63
2023-09-09T03:14:22.568Z,6.22
2023-09-09T03:16:50.496Z,4.75
2023-09-09T03:19:17.646Z,4.78
2023-09-09T03:21:44.840Z,4.28
2023-09-09T03:24:13.338Z,4.78
2023-09-09T03:26:40.589Z,5.47
2023-09-09T03:29:07.843Z,4.43
2023-09-09T03:31:35.005Z,5.15
2023-09-09T03:34:02.176Z,4.82
2023-09-09T03:36:29.879Z,4.55
2023-09-09T03:38:57.015Z,4.10
2023-09-09T03:41:25.496Z,5.53
2023-09-09T03:43:52.770Z,4.25
2023-09-09T03:46:20.238Z,5.38
2023-09-09T03:48:47.414Z,4.07
2023-09-09T03:51:14.617Z,5.00
2023-09-09T03:53:41.736Z,4.53
2023-09-09T03:56:08.936Z,4.65
2023-09-09T03:58:37.449Z,4.63
2023-09-09T04:01:06.369Z,4.65
2023-09-09T04:03:34.015Z,4.47
2023-09-09T04:06:01.639Z,4.72
2023-09-09T04:08:28.798Z,5.70
2023-09-09T04:10:55.978Z,5.70
2023-09-09T04:13:23.222Z,4.47
2023-09-09T04:15:53.201Z,4.40
2023-09-09T04:18:30.619Z,3.88
2023-09-09T04:21:05.922Z,5.00
2023-09-09T04:23:33.363Z,4.38
2023-09-09T04:26:00.716Z,5.18
2023-09-09T04:28:27.958Z,4.05
2023-09-09T04:30:56.489Z,5.68
2023-09-09T04:33:23.666Z,4.70
2023-09-09T04:35:53.016Z,4.85
2023-09-09T04:38:20.166Z,4.18
2023-09-09T04:40:47.302Z,4.85
2023-09-09T04:43:14.480Z,4.07
2023-09-09T04:45:41.673Z,4.32
2023-09-09T04:48:10.259Z,3.95
2023-09-09T04:50:37.451Z,4.22
2023-09-09T04:53:04.600Z,6.80
2023-09-09T04:55:31.761Z,4.63
2023-09-09T04:57:58.975Z,4.00
2023-09-09T05:00:26.116Z,4.57
2023-09-09T05:02:53.299Z,4.63
2023-09-09T05:05:21.959Z,4.82
2023-09-09T05:07:49.524Z,4.97
2023-09-09T05:10:16.728Z,5.05
2023-09-09T05:12:46.500Z,4.10
2023-09-09T05:15:13.944Z,4.82
2023-09-09T05:17:41.344Z,4.53
2023-09-09T05:20:09.761Z,5.93
2023-09-09T05:22:38.285Z,4.03
2023-09-09T05:25:06.191Z,4.57
2023-09-09T05:27:33.506Z,4.88
2023-09-09T05:30:00.800Z,6.60
2023-09-09T05:32:28.020Z,8.15
2023-09-09T05:34:55.225Z,9.93
2023-09-09T05:37:22.407Z,10.57
2023-09-09T05:39:50.898Z,9.25
2023-09-09T05:42:18.053Z,6.05
2023-09-09T05:44:45.255Z,6.05
2023-09-09T05:47:12.454Z,8.52
2023-09-09T05:49:40.609Z,6.88
2023-09-09T05:52:08.273Z,7.30
2023-09-09T05:54:35.625Z,7.18
2023-09-09T05:57:04.406Z,7.75
2023-09-09T05:59:32.445Z,5.90
2023-09-09T06:01:59.655Z,7.78
2023-09-09T06:04:26.937Z,6.30
2023-09-09T06:06:54.164Z,8.32
2023-09-09T06:09:21.427Z,7.32
2023-09-09T06:11:49.687Z,12.45
2023-09-09T06:14:18.279Z,17.45
2023-09-09T06:16:45.430Z,8.25
2023-09-09T06:19:13.477Z,7.78
2023-09-09T06:21:40.679Z,9.88
2023-09-09T06:24:08.931Z,7.82
2023-09-09T06:26:36.087Z,6.60
2023-09-09T06:29:03.274Z,9.80
2023-09-09T06:31:32.372Z,8.02
2023-09-09T06:33:59.782Z,11.38
2023-09-09T06:36:26.941Z,11.95
2023-09-09T06:38:54.118Z,11.30
2023-09-09T06:41:22.522Z,7.10
2023-09-09T06:43:51.137Z,8.00
2023-09-09T06:46:18.380Z,21.00
2023-09-09T06:48:46.936Z,28.55
2023-09-09T06:51:14.112Z,47.58
2023-09-09T06:53:41.450Z,24.33
2023-09-09T06:56:08.966Z,13.75
2023-09-09T06:58:36.113Z,11.77
2023-09-09T07:01:03.254Z,11.57
2023-09-09T07:03:30.479Z,8.85
2023-09-09T07:06:00.723Z,8.77
2023-09-09T07:08:27.949Z,8.60
2023-09-09T07:10:55.354Z,9.65
2023-09-09T07:13:23.694Z,10.07
2023-09-09T07:15:52.120Z,14.60
2023-09-09T07:18:19.969Z,10.20
2023-09-09T07:20:47.114Z,9.55
2023-09-09T07:23:16.361Z,9.65
2023-09-09T07:25:43.896Z,11.38
2023-09-09T07:28:11.323Z,11.13
2023-09-09T07:30:39.348Z,14.25
2023-09-09T07:33:06.729Z,19.13
2023-09-09T07:35:34.553Z,21.55
2023-09-09T07:38:01.863Z,24.95
2023-09-09T07:40:30.689Z,15.57
2023-09-09T07:42:57.860Z,12.10
2023-09-09T07:45:24.992Z,17.55
2023-09-09T07:47:52.209Z,17.25
2023-09-09T07:50:19.740Z,19.52
2023-09-09T07:52:47.105Z,21.33
2023-09-09T07:55:14.362Z,16.75
2023-09-09T07:57:42.931Z,17.80
2023-09-09T08:00:10.904Z,15.73
2023-09-09T08:02:38.320Z,16.27
2023-09-09T08:05:06.546Z,14.80
2023-09-09T08:07:33.691Z,15.30
2023-09-09T08:10:00.949Z,14.77
2023-09-09T08:12:28.155Z,11.93
2023-09-09T08:15:05.881Z,43.20
2023-09-09T08:17:33.608Z,13.07
2023-09-09T08:20:01.032Z,10.73
2023-09-09T08:22:28.227Z,12.38
2023-09-09T08:24:55.378Z,12.27
2023-09-09T08:27:22.601Z,10.07
2023-09-09T08:29:49.767Z,10.40
2023-09-09T08:32:18.268Z,13.02
2023-09-09T08:34:45.410Z,9.85
2023-09-09T08:37:13.794Z,8.20
2023-09-09T08:39:42.790Z,8.95
2023-09-09T08:42:20.828Z,11.40
2023-09-09T08:44:54.466Z,9.60
2023-09-09T08:47:24.099Z,11.82
2023-09-09T08:49:54.048Z,9.25
2023-09-09T08:52:25.877Z,10.27
2023-09-09T08:54:53.862Z,10.50
2023-09-09T08:57:21.076Z,10.43
2023-09-09T08:59:48.809Z,11.10
2023-09-09T09:02:15.956Z,9.90
2023-09-09T09:04:44.810Z,9.57
2023-09-09T09:07:13.861Z,9.82
2023-09-09T09:09:41.079Z,8.68
2023-09-09T09:12:08.367Z,9.30
2023-09-09T09:14:35.658Z,8.32
2023-09-09T09:17:04.181Z,8.82
2023-09-09T09:19:32.023Z,8.20
2023-09-09T09:22:00.875Z,9.00
2023-09-09T09:24:29.037Z,9.23
2023-09-09T09:26:56.501Z,7.55
2023-09-09T09:29:23.837Z,7.45
2023-09-09T09:31:52.450Z,8.77
2023-09-09T09:34:32.778Z,8.15
2023-09-09T09:37:04.065Z,8.23
2023-09-09T09:39:35.214Z,8.93
2023-09-09T09:42:02.573Z,8.25
2023-09-09T09:44:29.850Z,7.60
2023-09-09T09:47:02.038Z,9.45
2023-09-09T09:49:36.494Z,8.95
2023-09-09T09:52:05.688Z,6.57
2023-09-09T09:54:34.265Z,8.10
2023-09-09T09:57:03.230Z,6.97
2023-09-09T09:59:32.236Z,9.60
2023-09-09T10:01:59.655Z,6.93
2023-09-09T10:04:27.878Z,8.95
2023-09-09T10:06:57.164Z,6.55
2023-09-09T10:09:34.786Z,7.00
2023-09-09T10:12:05.871Z,6.43
2023-09-09T10:14:36.238Z,6.25
2023-09-09T10:17:06.753Z,7.72
2023-09-09T10:19:35.551Z,7.30
2023-09-09T10:22:04.662Z,6.22
2023-09-09T10:24:34.385Z,6.53
2023-09-09T10:27:03.271Z,7.70
2023-09-09T10:29:31.509Z,6.55
2023-09-09T10:32:02.092Z,5.80
2023-09-09T10:34:30.459Z,8.68
2023-09-09T10:37:02.251Z,5.65
2023-09-09T10:39:31.755Z,6.90
2023-09-09T10:42:00.920Z,7.50
2023-09-09T10:44:28.083Z,7.43
2023-09-09T10:46:56.392Z,8.15
2023-09-09T10:49:26.793Z,6.18
2023-09-09T10:51:54.170Z,8.40
2023-09-09T10:54:24.047Z,7.72
2023-09-09T10:56:52.295Z,6.63
2023-09-09T10:59:24.099Z,6.95
2023-09-09T11:02:10.627Z,6.30
2023-09-09T11:04:39.225Z,8.77
2023-09-09T11:07:08.014Z,6.78
2023-09-09T11:09:35.637Z,6.72
2023-09-09T11:12:12.268Z,6.22
2023-09-09T11:14:44.518Z,6.38
2023-09-09T11:17:12.454Z,6.00
2023-09-09T11:19:41.862Z,7.28
2023-09-09T11:22:10.840Z,7.53
2023-09-09T11:24:38.834Z,6.15
2023-09-09T11:27:07.104Z,6.18
2023-09-09T11:29:37.543Z,5.13
2023-09-09T11:32:10.247Z,5.00
2023-09-09T11:34:37.520Z,5.57
2023-09-09T11:37:05.586Z,5.35
2023-09-09T11:39:39.927Z,6.03
2023-09-09T11:42:07.081Z,5.75
2023-09-09T11:44:39.654Z,5.28
2023-09-09T11:47:07.921Z,6.05
2023-09-09T11:49:37.628Z,5.40
2023-09-09T11:52:05.571Z,5.40
2023-09-09T11:54:32.957Z,5.35
2023-09-09T11:57:05.079Z,5.63
2023-09-09T11:59:32.605Z,5.40
2023-09-09T12:02:00.347Z,4.60
2023-09-09T12:04:27.723Z,6.60
2023-09-09T12:06:56.394Z,6.65
2023-09-09T12:09:23.746Z,5.75
2023-09-09T12:11:51.195Z,5.15
2023-09-09T12:14:18.570Z,5.93
2023-09-09T12:16:45.904Z,5.35
2023-09-09T12:19:13.425Z,5.88
2023-09-09T12:21:45.688Z,5.10
2023-09-09T12:24:14.290Z,5.72
2023-09-09T12:26:51.010Z,5.65
2023-09-09T12:29:18.217Z,5.78
2023-09-09T12:31:53.512Z,5.75
2023-09-09T12:34:20.962Z,5.57
2023-09-09T12:36:48.633Z,6.50
2023-09-09T12:39:27.439Z,5.45
2023-09-09T12:41:58.660Z,6.25
2023-09-09T12:44:25.811Z,6.30
2023-09-09T12:46:53.332Z,6.00
2023-09-09T12:49:21.286Z,7.65
2023-09-09T12:51:48.517Z,7.65
2023-09-09T12:54:15.798Z,8.38
2023-09-09T12:56:44.557Z,5.63
2023-09-09T12:59:11.745Z,6.38
2023-09-09T13:01:39.011Z,6.13
2023-09-09T13:04:06.598Z,5.82
2023-09-09T13:06:33.814Z,5.10
2023-09-09T13:09:01.043Z,4.30
2023-09-09T13:11:28.264Z,6.75
2023-09-09T13:14:01.806Z,5.18
2023-09-09T13:16:40.720Z,5.78
2023-09-09T13:19:07.936Z,5.28
2023-09-09T13:21:35.067Z,4.63
2023-09-09T13:24:02.532Z,5.38
2023-09-09T13:26:29.750Z,5.03
2023-09-09T13:28:58.252Z,5.10
2023-09-09T13:31:25.436Z,5.60
2023-09-09T13:33:52.568Z,4.80
2023-09-09T13:36:19.721Z,5.03
2023-09-09T13:38:46.886Z,5.50
2023-09-09T13:41:14.020Z,5.00
2023-09-09T13:43:41.308Z,4.57
2023-09-09T13:46:09.861Z,5.38
2023-09-09T13:48:37.407Z,6.40
2023-09-09T13:51:04.722Z,6.05
2023-09-09T13:53:32.031Z,5.78
2023-09-09T13:55:59.166Z,5.15
2023-09-09T13:58:26.314Z,5.30
2023-09-09T14:00:53.548Z,4.70
2023-09-09T14:03:22.281Z,4.93
2023-09-09T14:05:49.521Z,5.20
2023-09-09T14:08:17.118Z,4.35
2023-09-09T14:10:44.248Z,5.65
2023-09-09T14:13:11.407Z,6.32
2023-09-09T14:15:38.610Z,4.85
2023-09-09T14:18:05.852Z,5.13
2023-09-09T14:20:34.699Z,5.03
2023-09-09T14:23:02.065Z,5.70
2023-09-09T14:25:29.268Z,6.70
2023-09-09T14:27:56.420Z,5.80
2023-09-09T14:30:23.772Z,4.78
2023-09-09T14:32:51.081Z,6.07
2023-09-09T14:35:18.296Z,4.95
2023-09-09T14:37:46.817Z,5.30
2023-09-09T14:40:13.999Z,5.03
2023-09-09T14:42:41.661Z,4.85
2023-09-09T14:45:09.753Z,5.35
2023-09-09T14:47:36.963Z,4.40
2023-09-09T14:50:04.468Z,5.32
2023-09-09T14:52:31.929Z,5.47
2023-09-09T14:55:00.463Z,5.47
2023-09-09T14:57:27.670Z,4.82
2023-09-09T14:59:55.108Z,5.13
2023-09-09T15:02:22.297Z,5.57
2023-09-09T15:04:49.480Z,5.75
2023-09-09T15:07:18.559Z,4.30
2023-09-09T15:09:47.418Z,5.43
2023-09-09T15:12:15.976Z,7.03
2023-09-09T15:14:43.351Z,4.30
2023-09-09T15:17:10.963Z,4.85
2023-09-09T15:19:38.878Z,4.93
2023-09-09T15:22:06.103Z,4.88
2023-09-09T15:24:33.252Z,4.93
2023-09-09T15:27:00.639Z,4.65
2023-09-09T15:29:29.262Z,5.65
2023-09-09T15:31:56.785Z,6.78
2023-09-09T15:34:24.094Z,4.47
2023-09-09T15:36:51.408Z,4.20
2023-09-09T15:39:18.612Z,5.00
2023-09-09T15:41:45.893Z,4.03
2023-09-09T15:44:13.154Z,5.03
2023-09-09T15:46:41.755Z,5.18
2023-09-09T15:49:09.013Z,6.00
2023-09-09T15:51:36.225Z,4.72
2023-09-09T15:54:03.747Z,5.20
2023-09-09T15:56:30.974Z,4.38
2023-09-09T15:58:58.161Z,5.55
2023-09-09T16:01:25.382Z,5.45
2023-09-09T16:03:54.001Z,4.72
2023-09-09T16:06:21.222Z,4.60
2023-09-09T16:08:49.093Z,5.50
2023-09-09T16:11:16.229Z,4.53
2023-09-09T16:13:43.464Z,4.55
2023-09-09T16:16:11.595Z,4.78
2023-09-09T16:18:40.871Z,5.15
2023-09-09T16:21:09.864Z,4.90
2023-09-09T16:23:37.089Z,4.75
2023-09-09T16:26:05.686Z,4.60
2023-09-09T16:28:32.878Z,5.85
2023-09-09T16:31:04.098Z,5.20
2023-09-09T16:33:31.531Z,5.10
2023-09-09T16:36:01.068Z,5.25
2023-09-09T16:38:29.717Z,5.00
2023-09-09T16:40:56.906Z,6.30
2023-09-09T16:43:25.817Z,4.82
2023-09-09T16:45:53.024Z,5.32
2023-09-09T16:48:21.526Z,6.70
2023-09-09T16:50:48.898Z,5.20
2023-09-09T16:53:17.316Z,5.25
2023-09-09T16:55:47.225Z,5.15
2023-09-09T16:58:14.634Z,4.88
2023-09-09T17:00:41.793Z,5.03
2023-09-09T17:03:09.033Z,5.03
2023-09-09T17:05:36.332Z,5.45
2023-09-09T17:08:03.831Z,4.68
2023-09-09T17:10:31.106Z,5.13
2023-09-09T17:12:59.695Z,6.07
2023-09-09T17:15:26.883Z,5.90
2023-09-09T17:17:54.111Z,4.50
2023-09-09T17:20:21.297Z,4.68
2023-09-09T17:22:48.518Z,4.90
2023-09-09T17:25:15.953Z,4.95
2023-09-09T17:27:43.212Z,5.10
2023-09-09T17:30:13.131Z,4.75
2023-09-09T17:32:40.538Z,5.10
2023-09-09T17:35:08.502Z,4.85
2023-09-09T17:37:35.742Z,5.40
2023-09-09T17:40:03.339Z,5.63
2023-09-09T17:42:30.540Z,5.93
2023-09-09T17:44:57.671Z,4.47
2023-09-09T17:47:26.302Z,4.63
2023-09-09T17:49:53.694Z,5.93
2023-09-09T17:52:20.906Z,4.43
2023-09-09T17:54:48.059Z,5.03
2023-09-09T17:57:15.267Z,6.07
2023-09-09T17:59:42.528Z,6.05
2023-09-09T18:02:09.716Z,6.95
2023-09-09T18:04:38.391Z,4.88
2023-09-09T18:07:06.310Z,4.78
2023-09-09T18:09:33.498Z,4.40
2023-09-09T18:12:00.704Z,4.80
2023-09-09T18:14:27.879Z,4.90
2023-09-09T18:16:55.198Z,5.00
2023-09-09T18:19:23.124Z,4.43
2023-09-09T18:21:51.662Z,5.00
2023-09-09T18:24:19.424Z,4.10
2023-09-09T18:26:46.640Z,4.82
2023-09-09T18:29:13.858Z,4.93
2023-09-09T18:31:41.104Z,5.07
2023-09-09T18:34:08.500Z,5.55
2023-09-09T18:36:35.695Z,5.15
2023-09-09T18:39:04.656Z,5.00
2023-09-09T18:41:32.053Z,5.10
2023-09-09T18:43:59.251Z,6.55
2023-09-09T18:46:26.562Z,5.80
2023-09-09T18:48:53.828Z,5.22
2023-09-09T18:51:20.970Z,5.85
2023-09-09T18:53:49.082Z,5.22
2023-09-09T18:56:17.627Z,6.85
2023-09-09T18:58:44.819Z,12.48
2023-09-09T19:01:12.493Z,9.60
2023-09-09T19:03:39.765Z,7.40
2023-09-09T19:06:07.101Z,6.25
2023-09-09T19:08:34.445Z,6.95
2023-09-09T19:11:01.823Z,7.07
2023-09-09T19:13:30.420Z,7.70
2023-09-09T19:15:57.996Z,7.05
2023-09-09T19:18:25.177Z,5.93
2023-09-09T19:20:52.529Z,6.10
2023-09-09T19:23:19.777Z,8.75
2023-09-09T19:25:48.087Z,5.90
2023-09-09T19:28:15.262Z,10.88
2023-09-09T19:30:43.817Z,7.65
2023-09-09T19:33:11.049Z,6.55
2023-09-09T19:35:38.296Z,4.93
2023-09-09T19:38:06.174Z,5.93
2023-09-09T19:40:33.429Z,7.00
2023-09-09T19:43:00.611Z,5.60
2023-09-09T19:45:27.909Z,4.90
2023-09-09T19:47:56.486Z,6.32
2023-09-09T19:50:23.656Z,8.48
2023-09-09T19:52:50.890Z,4.88
2023-09-09T19:55:18.111Z,6.13
2023-09-09T19:57:45.353Z,7.75
2023-09-09T20:00:14.238Z,6.15
2023-09-09T20:02:41.625Z,5.72
2023-09-09T20:05:10.804Z,6.00
2023-09-09T20:07:38.182Z,7.10
2023-09-09T20:10:09.278Z,6.55
2023-09-09T20:12:36.540Z,5.85
2023-09-09T20:15:04.453Z,7.60
2023-09-09T20:17:31.654Z,5.93
2023-09-09T20:19:58.889Z,4.47
2023-09-09T20:22:29.498Z,6.25
2023-09-09T20:24:58.253Z,6.50
2023-09-09T20:27:25.381Z,8.10
2023-09-09T20:29:52.574Z,5.63
2023-09-09T20:32:19.772Z,6.72
2023-09-09T20:34:50.334Z,5.35
2023-09-09T20:37:17.518Z,5.38
2023-09-09T20:39:46.038Z,8.65
2023-09-09T20:42:13.259Z,6.70
2023-09-09T20:44:40.613Z,6.72
2023-09-09T20:47:07.886Z,5.68
2023-09-09T20:49:35.244Z,6.25
2023-09-09T20:52:02.488Z,5.90
2023-09-09T20:54:29.679Z,8.77
2023-09-09T20:56:58.194Z,5.75
2023-09-09T20:59:25.375Z,5.90
2023-09-09T21:01:52.565Z,5.35
2023-09-09T21:04:19.849Z,5.97
2023-09-09T21:06:47.135Z,6.25
2023-09-09T21:09:14.300Z,6.43
2023-09-09T21:11:41.482Z,6.75
2023-09-09T21:14:10.071Z,5.13
2023-09-09T21:16:37.652Z,4.80
2023-09-09T21:19:04.878Z,4.97
2023-09-09T21:21:32.060Z,6.82
2023-09-09T21:23:59.207Z,6.38
2023-09-09T21:26:26.362Z,5.45
2023-09-09T21:28:53.639Z,5.43
2023-09-09T21:31:22.217Z,5.07
2023-09-09T21:33:49.418Z,5.40
2023-09-09T21:36:16.619Z,5.00
2023-09-09T21:38:43.803Z,4.50
2023-09-09T21:41:11.013Z,6.00
2023-09-09T21:43:38.362Z,5.95
2023-09-09T21:46:05.561Z,5.93
2023-09-09T21:48:34.074Z,5.38
2023-09-09T21:51:01.384Z,6.95
2023-09-09T21:53:28.541Z,5.10
2023-09-09T21:55:55.761Z,5.20
2023-09-09T21:58:23.014Z,5.75
2023-09-09T22:00:50.287Z,5.93
2023-09-09T22:03:17.497Z,5.68
2023-09-09T22:05:46.092Z,5.07
2023-09-09T22:08:13.237Z,5.78
2023-09-09T22:10:40.433Z,6.47
2023-09-09T22:13:07.668Z,5.82
2023-09-09T22:15:35.784Z,5.18
2023-09-09T22:18:03.074Z,5.55
2023-09-09T22:20:30.273Z,5.18
2023-09-09T22:22:58.845Z,5.72
2023-09-09T22:25:26.212Z,5.72
2023-09-09T22:27:53.460Z,5.90
2023-09-09T22:30:20.975Z,5.10
2023-09-09T22:32:49.708Z,6.30
2023-09-09T22:35:23.935Z,6.13
2023-09-09T22:37:51.216Z,6.60
2023-09-09T22:40:20.135Z,6.82
2023-09-09T22:42:47.935Z,6.40
2023-09-09T22:45:16.344Z,5.90
2023-09-09T22:47:43.751Z,5.65
2023-09-09T22:50:11.715Z,6.75
2023-09-09T22:52:39.296Z,6.57
2023-09-09T22:55:07.075Z,6.03
2023-09-09T22:57:35.839Z,6.70
2023-09-09T23:00:04.557Z,8.52
2023-09-09T23:02:32.011Z,6.97
2023-09-09T23:04:59.344Z,6.20
2023-09-09T23:07:28.940Z,6.03
2023-09-09T23:12:27.264Z,6.00
2023-09-09T23:14:56.092Z,5.93
2023-09-09T23:17:23.304Z,5.80
2023-09-09T23:19:53.089Z,6.95
2023-09-09T23:22:20.442Z,6.38
2023-09-09T23:24:47.668Z,6.00
2023-09-09T23:27:14.826Z,7.18
2023-09-09T23:29:41.989Z,5.60
2023-09-09T23:32:10.699Z,9.25
2023-09-09T23:34:38.018Z,6.00
2023-09-09T23:37:05.333Z,9.35
2023-09-09T23:39:32.609Z,7.53
2023-09-09T23:41:59.764Z,7.90
2023-09-09T23:44:26.959Z,6.15
2023-09-09T23:46:54.176Z,7.65
2023-09-09T23:49:22.765Z,6.32
2023-09-09T23:51:49.943Z,6.05
2023-09-09T23:54:17.127Z,8.95
2023-09-09T23:56:44.359Z,7.10
2023-09-09T23:59:11.564Z,6.43
